»·PEaware :: N428RH KLAX-KLAS

N428RH :: KLAX-KLAS

FLIGHT INFORMATION

Flight Status: Arrived
Operator: Privately registered:
United States
More flights under this callsign
Pilot: Robert H. (8378)
Aircraft: Unknown
(LEGA)
More flights by this aircraft type
Origin: KLAX Los Angeles Intl
United States
Destination: KLAS McCarran Intl
United States
More flights between these airports :: More routes between these airports
Route: ORCKA3 MISEN KEPEC6
File this flight plan on PilotEdge
Remarks: RMK / SIMBRIEF
Altitude:
(Current/Filed)
39,000ft
Speed:
(Current/Filed)
425kts
Departed: 01-Jul-19 08:09 AM
Arrived: 01-Jul-19 08:57 AM
Distance/Time
Traveled:
204nm/0:48
Distance/Time
To Go:
Arrived

Flight Plot

Page will automatically refresh every two minutes.

Flight plan parsing failed; only flown route is shown


Map Options




Map Legend


Flown Route
Filed Route
Departure Airport
Arrival Airport
Navaid (VOR, NDB)
Fix

Horizontal Profiles

Position Reports

Time Latitude Longitude Heading Altitude Ground
Speed
01-Jul-19 07:49 33.933758 -118.399080 174 132ft 0kts
01-Jul-19 07:50 33.933758 -118.399080 174 132ft 0kts
01-Jul-19 07:51 33.933758 -118.399080 174 132ft 0kts
01-Jul-19 07:52 33.933758 -118.399080 174 132ft 0kts
01-Jul-19 07:53 33.933758 -118.399080 174 132ft 0kts
01-Jul-19 07:54 33.933758 -118.399080 174 132ft 0kts
01-Jul-19 07:55 33.933758 -118.399080 174 132ft 0kts
01-Jul-19 07:56 33.933758 -118.399080 174 132ft 0kts
01-Jul-19 07:57 33.933758 -118.399080 174 132ft 0kts
01-Jul-19 07:58 33.933758 -118.399080 174 132ft 0kts
01-Jul-19 07:59 33.933758 -118.399080 174 132ft 0kts
01-Jul-19 08:00 33.933758 -118.399080 174 132ft 0kts
01-Jul-19 08:01 33.933727 -118.399073 167 132ft 1kts
01-Jul-19 08:02 33.933823 -118.398217 53 132ft 0kts
01-Jul-19 08:03 33.934656 -118.397171 83 132ft 15kts
01-Jul-19 08:04 33.935400 -118.389867 83 132ft 26kts
01-Jul-19 08:05 33.936037 -118.383569 82 132ft 9kts
01-Jul-19 08:06 33.936270 -118.382870 43 132ft 0kts
01-Jul-19 08:07 33.938355 -118.383044 353 132ft 9kts
01-Jul-19 08:08 33.938918 -118.389199 263 132ft 107kts
01-Jul-19 08:09 33.932029 -118.449274 257 2860ft 240kts
01-Jul-19 08:10 33.886768 -118.482675 139 4998ft 210kts
01-Jul-19 08:11 33.904203 -118.424050 37 5012ft 237kts
01-Jul-19 08:12 33.942528 -118.460833 248 5007ft 236kts
01-Jul-19 08:13 33.917310 -118.532531 248 4987ft 227kts
01-Jul-19 08:14 33.876946 -118.579410 156 6032ft 248kts
01-Jul-19 08:15 33.852902 -118.506096 102 10163ft 257kts
01-Jul-19 08:16 33.872727 -118.430888 14 13001ft 303kts
01-Jul-19 08:17 33.956301 -118.398320 58 15967ft 358kts
01-Jul-19 08:18 34.011564 -118.294486 55 19693ft 370kts
01-Jul-19 08:19 34.069306 -118.192450 55 23263ft 368kts
01-Jul-19 08:20 34.126805 -118.090638 55 26305ft 367kts
01-Jul-19 08:21 34.183985 -117.989105 55 28912ft 365kts
01-Jul-19 08:22 34.240950 -117.887670 55 31166ft 364kts
01-Jul-19 08:23 34.297671 -117.786382 55 33108ft 364kts
01-Jul-19 08:24 34.354449 -117.685298 53 34817ft 362kts
01-Jul-19 08:25 34.413155 -117.587029 53 36333ft 360kts
01-Jul-19 08:26 34.472065 -117.488171 53 38266ft 360kts
01-Jul-19 08:27 34.531631 -117.387935 53 38383ft 394kts
01-Jul-19 08:28 34.602716 -117.267950 54 36181ft 481kts
01-Jul-19 08:29 34.686799 -117.125502 54 33913ft 549kts
01-Jul-19 08:30 34.771540 -116.981370 54 32183ft 493kts
01-Jul-19 08:31 34.847901 -116.850983 54 29774ft 452kts
01-Jul-19 08:32 34.918662 -116.729661 55 27385ft 426kts
01-Jul-19 08:34 34.984831 -116.612690 55 24995ft 417kts
01-Jul-19 08:35 35.050301 -116.496489 55 24065ft 411kts
01-Jul-19 08:36 35.119852 -116.382503 45 23551ft 414kts
01-Jul-19 08:37 35.199676 -116.282050 45 22119ft 403kts
01-Jul-19 08:38 35.278223 -116.183412 45 20678ft 394kts
01-Jul-19 08:39 35.353850 -116.088169 45 19262ft 385kts
01-Jul-19 08:40 35.427829 -115.994736 45 17849ft 376kts
01-Jul-19 08:41 35.500002 -115.903330 45 16442ft 368kts
01-Jul-19 08:42 35.570798 -115.813419 45 14897ft 353kts
01-Jul-19 08:43 35.635102 -115.731547 45 13078ft 323kts
01-Jul-19 08:44 35.697556 -115.650771 51 13033ft 325kts
01-Jul-19 08:45 35.754227 -115.564727 50 11654ft 318kts
01-Jul-19 08:46 35.809612 -115.480730 50 11040ft 315kts
01-Jul-19 08:47 35.865384 -115.396123 50 11035ft 315kts
01-Jul-19 08:48 35.921420 -115.311136 51 11028ft 315kts
01-Jul-19 08:49 35.976656 -115.227394 51 10016ft 310kts
01-Jul-19 08:50 36.030658 -115.144977 51 8712ft 303kts
01-Jul-19 08:51 36.080981 -115.066107 51 7037ft 280kts
01-Jul-19 08:52 36.127571 -114.993157 50 6005ft 261kts
01-Jul-19 08:53 36.179550 -115.012490 275 5944ft 243kts
01-Jul-19 08:53 36.173628 -115.079474 249 4563ft 236kts
01-Jul-19 08:55 36.130993 -115.138576 204 2902ft 159kts
01-Jul-19 08:56 36.093190 -115.160118 206 2150ft 136kts
01-Jul-19 08:56 36.078916 -115.168313 204 2148ft 21kts
01-Jul-19 08:58 36.079562 -115.170285 22 2148ft 18kts
01-Jul-19 08:58 36.081171 -115.170441 187 2148ft 6kts

Navigation Log

Ident Type
Flight plan parsing failed, navigation log unavailable